sensor_id;sensor_type;location;lat;lon;timestamp;temperature;humidity
41427;DHT22;27171;51.812;19.514;2023-03-15T00:02:45;3.50;99.90
41427;DHT22;27171;51.812;19.514;2023-03-15T00:05:47;3.50;99.90
41427;DHT22;27171;51.812;19.514;2023-03-15T00:08:48;3.50;99.90
41427;DHT22;27171;51.812;19.514;2023-03-15T00:11:50;3.40;99.90
41427;DHT22;27171;51.812;19.514;2023-03-15T00:14:51;3.30;99.90
41427;DHT22;27171;51.812;19.514;2023-03-15T00:17:52;3.30;99.90
41427;DHT22;27171;51.812;19.514;2023-03-15T00:20:54;3.20;99.90
41427;DHT22;27171;51.812;19.514;2023-03-15T00:23:55;3.10;99.90
41427;DHT22;27171;51.812;19.514;2023-03-15T00:26:57;3.00;99.90
41427;DHT22;27171;51.812;19.514;2023-03-15T00:29:58;3.00;99.90
41427;DHT22;27171;51.812;19.514;2023-03-15T00:32:59;2.90;99.90
41427;DHT22;27171;51.812;19.514;2023-03-15T00:36:04;2.90;99.90
41427;DHT22;27171;51.812;19.514;2023-03-15T00:39:06;2.80;99.90
41427;DHT22;27171;51.812;19.514;2023-03-15T00:42:07;2.80;99.90
41427;DHT22;27171;51.812;19.514;2023-03-15T00:45:08;2.70;99.90
41427;DHT22;27171;51.812;19.514;2023-03-15T00:48:09;2.70;99.90
41427;DHT22;27171;51.812;19.514;2023-03-15T00:51:16;2.70;99.90
41427;DHT22;27171;51.812;19.514;2023-03-15T00:54:18;2.70;99.90
41427;DHT22;27171;51.812;19.514;2023-03-15T00:57:19;2.60;99.90
41427;DHT22;27171;51.812;19.514;2023-03-15T01:00:22;2.60;99.90
41427;DHT22;27171;51.812;19.514;2023-03-15T01:03:23;2.50;99.90
41427;DHT22;27171;51.812;19.514;2023-03-15T01:06:27;2.50;99.90
41427;DHT22;27171;51.812;19.514;2023-03-15T01:09:28;2.50;99.90
41427;DHT22;27171;51.812;19.514;2023-03-15T01:12:30;2.50;99.90
41427;DHT22;27171;51.812;19.514;2023-03-15T01:15:32;2.40;99.90
41427;DHT22;27171;51.812;19.514;2023-03-15T01:18:33;2.40;99.90
41427;DHT22;27171;51.812;19.514;2023-03-15T01:21:35;2.40;99.90
41427;DHT22;27171;51.812;19.514;2023-03-15T01:24:36;2.40;99.90
41427;DHT22;27171;51.812;19.514;2023-03-15T01:27:37;2.40;99.90
41427;DHT22;27171;51.812;19.514;2023-03-15T01:30:38;2.40;99.90
41427;DHT22;27171;51.812;19.514;2023-03-15T01:33:39;2.30;99.90
41427;DHT22;27171;51.812;19.514;2023-03-15T01:36:41;2.30;99.90
41427;DHT22;27171;51.812;19.514;2023-03-15T01:39:42;2.30;99.90
41427;DHT22;27171;51.812;19.514;2023-03-15T01:43:12;2.30;99.90
41427;DHT22;27171;51.812;19.514;2023-03-15T01:46:30;2.30;99.90
41427;DHT22;27171;51.812;19.514;2023-03-15T01:49:42;2.30;99.90
41427;DHT22;27171;51.812;19.514;2023-03-15T01:52:44;2.30;99.90
41427;DHT22;27171;51.812;19.514;2023-03-15T01:55:53;2.20;99.90
41427;DHT22;27171;51.812;19.514;2023-03-15T01:59:03;2.20;99.90
41427;DHT22;27171;51.812;19.514;2023-03-15T02:02:05;2.30;99.90
41427;DHT22;27171;51.812;19.514;2023-03-15T02:05:09;2.20;99.90
41427;DHT22;27171;51.812;19.514;2023-03-15T02:08:12;2.20;99.90
41427;DHT22;27171;51.812;19.514;2023-03-15T02:11:19;2.20;99.90
41427;DHT22;27171;51.812;19.514;2023-03-15T02:14:22;2.30;99.90
41427;DHT22;27171;51.812;19.514;2023-03-15T02:17:29;2.30;99.90
41427;DHT22;27171;51.812;19.514;2023-03-15T02:24:00;2.30;99.90
41427;DHT22;27171;51.812;19.514;2023-03-15T02:27:04;2.30;99.90
41427;DHT22;27171;51.812;19.514;2023-03-15T02:30:06;2.30;99.90
41427;DHT22;27171;51.812;19.514;2023-03-15T02:33:32;2.30;99.90
41427;DHT22;27171;51.812;19.514;2023-03-15T02:36:35;2.30;99.90
41427;DHT22;27171;51.812;19.514;2023-03-15T02:39:36;2.30;99.90
41427;DHT22;27171;51.812;19.514;2023-03-15T02:42:38;2.30;99.90
41427;DHT22;27171;51.812;19.514;2023-03-15T02:45:40;2.30;99.90
41427;DHT22;27171;51.812;19.514;2023-03-15T02:48:42;2.30;99.90
41427;DHT22;27171;51.812;19.514;2023-03-15T02:51:44;2.40;99.90
41427;DHT22;27171;51.812;19.514;2023-03-15T02:54:46;2.30;99.90
41427;DHT22;27171;51.812;19.514;2023-03-15T02:57:47;2.30;99.90
41427;DHT22;27171;51.812;19.514;2023-03-15T03:00:51;2.30;99.90
41427;DHT22;27171;51.812;19.514;2023-03-15T03:03:53;2.30;99.90
41427;DHT22;27171;51.812;19.514;2023-03-15T03:06:54;2.30;99.90
41427;DHT22;27171;51.812;19.514;2023-03-15T03:09:59;2.30;99.90
41427;DHT22;27171;51.812;19.514;2023-03-15T03:13:01;2.30;99.90
41427;DHT22;27171;51.812;19.514;2023-03-15T03:16:09;2.30;99.90
41427;DHT22;27171;51.812;19.514;2023-03-15T03:19:11;2.30;99.90
41427;DHT22;27171;51.812;19.514;2023-03-15T03:22:12;2.30;99.90
41427;DHT22;27171;51.812;19.514;2023-03-15T03:25:14;2.30;99.90
41427;DHT22;27171;51.812;19.514;2023-03-15T03:28:15;2.30;99.90
41427;DHT22;27171;51.812;19.514;2023-03-15T03:31:23;2.30;99.90
41427;DHT22;27171;51.812;19.514;2023-03-15T03:34:25;2.30;99.90
41427;DHT22;27171;51.812;19.514;2023-03-15T03:37:27;2.30;99.90
41427;DHT22;27171;51.812;19.514;2023-03-15T03:40:33;2.30;99.90
41427;DHT22;27171;51.812;19.514;2023-03-15T03:43:34;2.30;99.90
41427;DHT22;27171;51.812;19.514;2023-03-15T03:46:36;2.30;99.90
41427;DHT22;27171;51.812;19.514;2023-03-15T03:49:37;2.30;99.90
41427;DHT22;27171;51.812;19.514;2023-03-15T03:52:38;2.30;99.90
41427;DHT22;27171;51.812;19.514;2023-03-15T03:55:43;2.30;99.90
41427;DHT22;27171;51.812;19.514;2023-03-15T03:58:47;2.30;99.90
41427;DHT22;27171;51.812;19.514;2023-03-15T04:01:56;2.30;99.90
41427;DHT22;27171;51.812;19.514;2023-03-15T04:04:58;2.20;99.90
41427;DHT22;27171;51.812;19.514;2023-03-15T04:08:00;2.30;99.90
41427;DHT22;27171;51.812;19.514;2023-03-15T04:11:06;2.20;99.90
41427;DHT22;27171;51.812;19.514;2023-03-15T04:14:12;2.20;99.90
41427;DHT22;27171;51.812;19.514;2023-03-15T04:17:14;2.20;99.90
41427;DHT22;27171;51.812;19.514;2023-03-15T04:20:16;2.20;99.90
41427;DHT22;27171;51.812;19.514;2023-03-15T04:23:21;2.10;99.90
41427;DHT22;27171;51.812;19.514;2023-03-15T04:26:45;2.10;99.90
41427;DHT22;27171;51.812;19.514;2023-03-15T04:30:16;2.10;99.90
41427;DHT22;27171;51.812;19.514;2023-03-15T04:33:37;2.10;99.90
41427;DHT22;27171;51.812;19.514;2023-03-15T04:37:05;2.10;99.90
41427;DHT22;27171;51.812;19.514;2023-03-15T04:40:32;2.00;99.90
41427;DHT22;27171;51.812;19.514;2023-03-15T04:43:52;2.00;99.90
41427;DHT22;27171;51.812;19.514;2023-03-15T04:47:03;2.00;99.90
41427;DHT22;27171;51.812;19.514;2023-03-15T04:50:20;2.00;99.90
41427;DHT22;27171;51.812;19.514;2023-03-15T04:53:28;2.00;99.90
41427;DHT22;27171;51.812;19.514;2023-03-15T04:56:49;2.00;99.90
41427;DHT22;27171;51.812;19.514;2023-03-15T05:00:14;2.00;99.90
41427;DHT22;27171;51.812;19.514;2023-03-15T05:03:36;2.00;99.90
41427;DHT22;27171;51.812;19.514;2023-03-15T05:06:51;2.00;99.90
41427;DHT22;27171;51.812;19.514;2023-03-15T05:10:06;1.90;99.90
41427;DHT22;27171;51.812;19.514;2023-03-15T05:13:36;1.90;99.90
41427;DHT22;27171;51.812;19.514;2023-03-15T05:17:00;1.80;99.90
41427;DHT22;27171;51.812;19.514;2023-03-15T05:20:15;1.80;99.90
41427;DHT22;27171;51.812;19.514;2023-03-15T05:23:31;1.80;99.90
41427;DHT22;27171;51.812;19.514;2023-03-15T05:26:55;1.80;99.90
41427;DHT22;27171;51.812;19.514;2023-03-15T05:30:00;1.80;99.90
41427;DHT22;27171;51.812;19.514;2023-03-15T05:33:15;1.80;99.90
41427;DHT22;27171;51.812;19.514;2023-03-15T05:36:39;1.80;99.90
41427;DHT22;27171;51.812;19.514;2023-03-15T05:39:54;1.80;99.90
41427;DHT22;27171;51.812;19.514;2023-03-15T05:43:25;1.80;99.90
41427;DHT22;27171;51.812;19.514;2023-03-15T05:46:49;1.80;99.90
41427;DHT22;27171;51.812;19.514;2023-03-15T05:50:03;1.80;99.90
41427;DHT22;27171;51.812;19.514;2023-03-15T05:53:21;1.70;99.90
41427;DHT22;27171;51.812;19.514;2023-03-15T05:56:36;1.80;99.90
41427;DHT22;27171;51.812;19.514;2023-03-15T05:59:51;1.70;99.90
41427;DHT22;27171;51.812;19.514;2023-03-15T06:03:07;1.70;99.90
41427;DHT22;27171;51.812;19.514;2023-03-15T06:06:21;1.70;99.90
41427;DHT22;27171;51.812;19.514;2023-03-15T06:09:22;1.70;99.90
41427;DHT22;27171;51.812;19.514;2023-03-15T06:12:25;1.70;99.90
41427;DHT22;27171;51.812;19.514;2023-03-15T06:15:26;1.70;99.90
41427;DHT22;27171;51.812;19.514;2023-03-15T06:18:29;1.70;99.90
41427;DHT22;27171;51.812;19.514;2023-03-15T06:21:30;1.70;99.90
41427;DHT22;27171;51.812;19.514;2023-03-15T06:24:32;1.70;99.90
41427;DHT22;27171;51.812;19.514;2023-03-15T06:27:35;1.70;99.90
41427;DHT22;27171;51.812;19.514;2023-03-15T06:30:36;1.80;99.90
41427;DHT22;27171;51.812;19.514;2023-03-15T06:33:38;1.80;99.90
41427;DHT22;27171;51.812;19.514;2023-03-15T06:36:48;1.80;99.90
41427;DHT22;27171;51.812;19.514;2023-03-15T06:39:49;1.80;99.90
41427;DHT22;27171;51.812;19.514;2023-03-15T06:42:51;1.90;99.90
41427;DHT22;27171;51.812;19.514;2023-03-15T06:45:54;1.90;99.90
41427;DHT22;27171;51.812;19.514;2023-03-15T06:48:55;1.90;99.90
41427;DHT22;27171;51.812;19.514;2023-03-15T06:51:57;2.00;99.90
41427;DHT22;27171;51.812;19.514;2023-03-15T06:54:58;2.00;99.90
41427;DHT22;27171;51.812;19.514;2023-03-15T06:57:59;2.00;99.90
41427;DHT22;27171;51.812;19.514;2023-03-15T07:01:00;2.00;99.90
41427;DHT22;27171;51.812;19.514;2023-03-15T07:04:02;2.10;99.90
41427;DHT22;27171;51.812;19.514;2023-03-15T07:07:03;2.20;99.90
41427;DHT22;27171;51.812;19.514;2023-03-15T07:10:05;2.20;99.90
41427;DHT22;27171;51.812;19.514;2023-03-15T07:13:06;2.30;99.90
41427;DHT22;27171;51.812;19.514;2023-03-15T07:16:07;2.20;99.90
41427;DHT22;27171;51.812;19.514;2023-03-15T07:19:09;2.30;99.90
41427;DHT22;27171;51.812;19.514;2023-03-15T07:22:11;2.20;99.90
41427;DHT22;27171;51.812;19.514;2023-03-15T07:25:12;2.30;99.90
41427;DHT22;27171;51.812;19.514;2023-03-15T07:28:13;2.30;99.90
41427;DHT22;27171;51.812;19.514;2023-03-15T07:31:14;2.30;99.90
41427;DHT22;27171;51.812;19.514;2023-03-15T07:34:16;2.30;99.90
41427;DHT22;27171;51.812;19.514;2023-03-15T07:37:17;2.20;99.90
41427;DHT22;27171;51.812;19.514;2023-03-15T07:40:18;2.20;99.90
41427;DHT22;27171;51.812;19.514;2023-03-15T07:43:20;2.20;99.90
41427;DHT22;27171;51.812;19.514;2023-03-15T07:46:24;2.20;99.90
41427;DHT22;27171;51.812;19.514;2023-03-15T07:49:25;2.20;99.90
41427;DHT22;27171;51.812;19.514;2023-03-15T07:52:26;2.20;99.90
41427;DHT22;27171;51.812;19.514;2023-03-15T07:55:27;2.30;99.90
41427;DHT22;27171;51.812;19.514;2023-03-15T07:58:28;2.30;99.90
41427;DHT22;27171;51.812;19.514;2023-03-15T08:01:30;2.30;99.90
41427;DHT22;27171;51.812;19.514;2023-03-15T08:04:31;2.40;99.90
41427;DHT22;27171;51.812;19.514;2023-03-15T08:07:32;2.50;99.90
41427;DHT22;27171;51.812;19.514;2023-03-15T08:10:33;2.50;99.90
41427;DHT22;27171;51.812;19.514;2023-03-15T08:13:34;2.60;99.90
41427;DHT22;27171;51.812;19.514;2023-03-15T08:20:20;2.80;99.90
41427;DHT22;27171;51.812;19.514;2023-03-15T08:23:21;2.90;99.90
41427;DHT22;27171;51.812;19.514;2023-03-15T08:26:23;2.90;99.90
41427;DHT22;27171;51.812;19.514;2023-03-15T08:29:23;3.00;99.90
41427;DHT22;27171;51.812;19.514;2023-03-15T08:32:25;3.10;99.90
41427;DHT22;27171;51.812;19.514;2023-03-15T08:35:26;3.20;99.90
41427;DHT22;27171;51.812;19.514;2023-03-15T08:38:27;3.30;99.90
41427;DHT22;27171;51.812;19.514;2023-03-15T08:41:28;3.30;99.90
41427;DHT22;27171;51.812;19.514;2023-03-15T08:44:29;3.30;99.90
41427;DHT22;27171;51.812;19.514;2023-03-15T08:47:30;3.40;99.90
41427;DHT22;27171;51.812;19.514;2023-03-15T08:50:31;3.50;99.90
41427;DHT22;27171;51.812;19.514;2023-03-15T08:53:32;3.50;99.90
41427;DHT22;27171;51.812;19.514;2023-03-15T08:56:34;3.60;99.90
41427;DHT22;27171;51.812;19.514;2023-03-15T08:59:35;3.60;99.90
41427;DHT22;27171;51.812;19.514;2023-03-15T09:02:36;3.50;99.90
41427;DHT22;27171;51.812;19.514;2023-03-15T09:05:38;3.60;99.90
41427;DHT22;27171;51.812;19.514;2023-03-15T09:08:38;3.60;99.90
41427;DHT22;27171;51.812;19.514;2023-03-15T09:11:39;3.60;99.90
41427;DHT22;27171;51.812;19.514;2023-03-15T09:14:41;3.60;99.90
41427;DHT22;27171;51.812;19.514;2023-03-15T09:17:42;3.50;99.90
41427;DHT22;27171;51.812;19.514;2023-03-15T09:20:43;3.50;99.90
41427;DHT22;27171;51.812;19.514;2023-03-15T09:23:45;3.50;99.90
41427;DHT22;27171;51.812;19.514;2023-03-15T09:26:45;3.50;99.90
41427;DHT22;27171;51.812;19.514;2023-03-15T09:29:47;3.60;99.90
41427;DHT22;27171;51.812;19.514;2023-03-15T09:32:48;3.50;99.90
41427;DHT22;27171;51.812;19.514;2023-03-15T09:35:50;3.50;99.90
41427;DHT22;27171;51.812;19.514;2023-03-15T09:38:52;3.50;99.90
41427;DHT22;27171;51.812;19.514;2023-03-15T09:41:55;3.50;99.90
41427;DHT22;27171;51.812;19.514;2023-03-15T09:45:28;3.50;99.90
41427;DHT22;27171;51.812;19.514;2023-03-15T09:48:32;3.60;99.90
41427;DHT22;27171;51.812;19.514;2023-03-15T09:51:43;3.70;99.90
41427;DHT22;27171;51.812;19.514;2023-03-15T09:54:53;3.80;99.90
41427;DHT22;27171;51.812;19.514;2023-03-15T09:58:01;3.90;99.90
41427;DHT22;27171;51.812;19.514;2023-03-15T10:01:09;4.00;99.90
41427;DHT22;27171;51.812;19.514;2023-03-15T10:04:20;4.10;99.90
41427;DHT22;27171;51.812;19.514;2023-03-15T10:07:22;4.20;99.90
41427;DHT22;27171;51.812;19.514;2023-03-15T10:10:30;4.30;99.90
41427;DHT22;27171;51.812;19.514;2023-03-15T10:16:51;4.60;99.90
41427;DHT22;27171;51.812;19.514;2023-03-15T10:19:57;4.60;99.90
41427;DHT22;27171;51.812;19.514;2023-03-15T10:26:14;4.50;99.90
41427;DHT22;27171;51.812;19.514;2023-03-15T10:29:19;4.50;99.90
41427;DHT22;27171;51.812;19.514;2023-03-15T10:32:27;4.50;99.90
41427;DHT22;27171;51.812;19.514;2023-03-15T10:35:30;4.50;99.90
41427;DHT22;27171;51.812;19.514;2023-03-15T10:38:31;4.60;99.90
41427;DHT22;27171;51.812;19.514;2023-03-15T10:41:40;4.70;99.90
41427;DHT22;27171;51.812;19.514;2023-03-15T10:44:41;4.80;99.90
41427;DHT22;27171;51.812;19.514;2023-03-15T10:50:31;5.00;99.90
41427;DHT22;27171;51.812;19.514;2023-03-15T10:53:33;5.10;99.90
41427;DHT22;27171;51.812;19.514;2023-03-15T10:56:46;5.00;99.90
41427;DHT22;27171;51.812;19.514;2023-03-15T10:59:57;5.00;99.90
41427;DHT22;27171;51.812;19.514;2023-03-15T11:03:20;5.00;99.90
41427;DHT22;27171;51.812;19.514;2023-03-15T11:06:25;5.00;99.90
41427;DHT22;27171;51.812;19.514;2023-03-15T11:09:40;5.00;99.90
41427;DHT22;27171;51.812;19.514;2023-03-15T11:12:41;4.90;99.90
41427;DHT22;27171;51.812;19.514;2023-03-15T11:18:57;4.90;99.90
41427;DHT22;27171;51.812;19.514;2023-03-15T11:22:01;4.90;99.90
41427;DHT22;27171;51.812;19.514;2023-03-15T11:25:02;4.90;99.90
41427;DHT22;27171;51.812;19.514;2023-03-15T11:28:03;5.00;99.90
41427;DHT22;27171;51.812;19.514;2023-03-15T11:31:05;4.90;99.90
41427;DHT22;27171;51.812;19.514;2023-03-15T11:37:51;4.70;99.90
41427;DHT22;27171;51.812;19.514;2023-03-15T11:40:54;4.80;99.90
41427;DHT22;27171;51.812;19.514;2023-03-15T11:47:30;4.70;99.90
41427;DHT22;27171;51.812;19.514;2023-03-15T11:50:34;4.70;99.90
41427;DHT22;27171;51.812;19.514;2023-03-15T11:53:48;4.70;99.90
41427;DHT22;27171;51.812;19.514;2023-03-15T11:57:01;4.70;99.90
41427;DHT22;27171;51.812;19.514;2023-03-15T12:03:43;4.90;99.90
41427;DHT22;27171;51.812;19.514;2023-03-15T12:06:44;5.00;99.90
41427;DHT22;27171;51.812;19.514;2023-03-15T12:09:57;5.00;99.90
41427;DHT22;27171;51.812;19.514;2023-03-15T12:13:21;5.10;99.90
41427;DHT22;27171;51.812;19.514;2023-03-15T12:16:26;5.10;99.90
41427;DHT22;27171;51.812;19.514;2023-03-15T12:19:28;5.20;99.90
41427;DHT22;27171;51.812;19.514;2023-03-15T12:22:32;5.20;99.90
41427;DHT22;27171;51.812;19.514;2023-03-15T12:25:37;5.20;99.90
41427;DHT22;27171;51.812;19.514;2023-03-15T12:35:14;5.20;99.10
41427;DHT22;27171;51.812;19.514;2023-03-15T12:38:21;5.20;99.90
41427;DHT22;27171;51.812;19.514;2023-03-15T12:41:38;5.20;99.90
41427;DHT22;27171;51.812;19.514;2023-03-15T12:44:44;5.20;99.90
41427;DHT22;27171;51.812;19.514;2023-03-15T12:50:58;5.20;99.90
41427;DHT22;27171;51.812;19.514;2023-03-15T12:54:00;5.20;99.10
41427;DHT22;27171;51.812;19.514;2023-03-15T12:57:03;5.20;99.90
41427;DHT22;27171;51.812;19.514;2023-03-15T13:00:25;5.20;99.90
41427;DHT22;27171;51.812;19.514;2023-03-15T13:03:27;5.10;99.90
41427;DHT22;27171;51.812;19.514;2023-03-15T13:23:30;5.40;99.90
41427;DHT22;27171;51.812;19.514;2023-03-15T13:29:51;5.60;99.30
41427;DHT22;27171;51.812;19.514;2023-03-15T13:33:17;5.50;98.80
41427;DHT22;27171;51.812;19.514;2023-03-15T13:36:19;5.50;99.00
41427;DHT22;27171;51.812;19.514;2023-03-15T13:39:24;5.50;97.80
41427;DHT22;27171;51.812;19.514;2023-03-15T13:42:26;5.40;96.60
41427;DHT22;27171;51.812;19.514;2023-03-15T13:45:27;5.30;98.60
41427;DHT22;27171;51.812;19.514;2023-03-15T13:48:33;5.30;99.00
41427;DHT22;27171;51.812;19.514;2023-03-15T13:51:36;5.30;98.10
41427;DHT22;27171;51.812;19.514;2023-03-15T13:54:38;5.30;99.20
41427;DHT22;27171;51.812;19.514;2023-03-15T13:57:41;5.30;99.30
41427;DHT22;27171;51.812;19.514;2023-03-15T14:00:42;5.40;97.60
41427;DHT22;27171;51.812;19.514;2023-03-15T14:03:46;5.30;98.30
41427;DHT22;27171;51.812;19.514;2023-03-15T14:06:48;5.30;96.10
41427;DHT22;27171;51.812;19.514;2023-03-15T14:13:28;5.40;98.50
41427;DHT22;27171;51.812;19.514;2023-03-15T14:16:43;5.40;98.10
41427;DHT22;27171;51.812;19.514;2023-03-15T14:19:52;5.50;98.10
41427;DHT22;27171;51.812;19.514;2023-03-15T14:22:57;5.40;96.10
41427;DHT22;27171;51.812;19.514;2023-03-15T14:29:27;5.30;97.20
41427;DHT22;27171;51.812;19.514;2023-03-15T14:32:33;5.30;98.60
41427;DHT22;27171;51.812;19.514;2023-03-15T14:38:37;5.30;98.60
41427;DHT22;27171;51.812;19.514;2023-03-15T14:41:38;5.40;98.10
41427;DHT22;27171;51.812;19.514;2023-03-15T14:44:39;5.40;98.40
41427;DHT22;27171;51.812;19.514;2023-03-15T14:47:44;5.40;97.50
41427;DHT22;27171;51.812;19.514;2023-03-15T14:50:46;5.30;98.30
41427;DHT22;27171;51.812;19.514;2023-03-15T14:53:51;5.30;98.30
41427;DHT22;27171;51.812;19.514;2023-03-15T14:56:53;5.30;98.40
41427;DHT22;27171;51.812;19.514;2023-03-15T14:59:54;5.20;98.80
41427;DHT22;27171;51.812;19.514;2023-03-15T15:02:55;5.20;98.10
41427;DHT22;27171;51.812;19.514;2023-03-15T15:05:57;5.10;97.30
41427;DHT22;27171;51.812;19.514;2023-03-15T15:08:59;5.10;99.00
41427;DHT22;27171;51.812;19.514;2023-03-15T15:12:02;5.00;98.80
41427;DHT22;27171;51.812;19.514;2023-03-15T15:15:17;5.00;98.60
41427;DHT22;27171;51.812;19.514;2023-03-15T15:18:19;5.00;99.20
41427;DHT22;27171;51.812;19.514;2023-03-15T15:21:27;4.90;98.80
41427;DHT22;27171;51.812;19.514;2023-03-15T15:24:30;4.90;98.70
41427;DHT22;27171;51.812;19.514;2023-03-15T15:27:31;4.90;99.10
41427;DHT22;27171;51.812;19.514;2023-03-15T15:30:32;4.80;99.70
41427;DHT22;27171;51.812;19.514;2023-03-15T15:33:33;4.90;98.80
41427;DHT22;27171;51.812;19.514;2023-03-15T15:36:39;4.80;99.70
41427;DHT22;27171;51.812;19.514;2023-03-15T15:39:41;4.80;99.70
41427;DHT22;27171;51.812;19.514;2023-03-15T15:42:43;4.70;99.90
41427;DHT22;27171;51.812;19.514;2023-03-15T15:45:44;4.70;99.90
41427;DHT22;27171;51.812;19.514;2023-03-15T15:48:45;4.70;99.90
41427;DHT22;27171;51.812;19.514;2023-03-15T15:51:48;4.70;99.90
41427;DHT22;27171;51.812;19.514;2023-03-15T15:54:49;4.70;99.90
41427;DHT22;27171;51.812;19.514;2023-03-15T15:57:50;4.70;99.90
41427;DHT22;27171;51.812;19.514;2023-03-15T16:00:51;4.70;99.90
41427;DHT22;27171;51.812;19.514;2023-03-15T16:03:52;4.70;99.90
41427;DHT22;27171;51.812;19.514;2023-03-15T16:06:56;4.70;99.90
41427;DHT22;27171;51.812;19.514;2023-03-15T16:09:58;4.70;99.90
41427;DHT22;27171;51.812;19.514;2023-03-15T16:13:02;4.70;99.90
41427;DHT22;27171;51.812;19.514;2023-03-15T16:16:04;4.70;99.90
41427;DHT22;27171;51.812;19.514;2023-03-15T16:19:05;4.70;99.90
41427;DHT22;27171;51.812;19.514;2023-03-15T16:22:06;4.70;99.90
41427;DHT22;27171;51.812;19.514;2023-03-15T16:25:18;4.60;99.90
41427;DHT22;27171;51.812;19.514;2023-03-15T16:28:21;4.60;99.90
41427;DHT22;27171;51.812;19.514;2023-03-15T16:31:24;4.60;99.90
41427;DHT22;27171;51.812;19.514;2023-03-15T16:34:25;4.60;99.90
41427;DHT22;27171;51.812;19.514;2023-03-15T16:37:30;4.50;99.90
41427;DHT22;27171;51.812;19.514;2023-03-15T16:40:32;4.50;99.90
41427;DHT22;27171;51.812;19.514;2023-03-15T16:43:34;4.50;99.90
41427;DHT22;27171;51.812;19.514;2023-03-15T16:46:35;4.50;99.90
41427;DHT22;27171;51.812;19.514;2023-03-15T16:49:36;4.50;99.90
41427;DHT22;27171;51.812;19.514;2023-03-15T16:52:38;4.50;99.90
41427;DHT22;27171;51.812;19.514;2023-03-15T16:55:40;4.50;99.90
41427;DHT22;27171;51.812;19.514;2023-03-15T16:58:42;4.40;99.90
41427;DHT22;27171;51.812;19.514;2023-03-15T17:01:44;4.30;99.90
41427;DHT22;27171;51.812;19.514;2023-03-15T17:04:45;4.20;99.90
41427;DHT22;27171;51.812;19.514;2023-03-15T17:07:48;4.20;99.90
41427;DHT22;27171;51.812;19.514;2023-03-15T17:10:49;4.10;99.90
41427;DHT22;27171;51.812;19.514;2023-03-15T17:13:50;4.00;99.90
41427;DHT22;27171;51.812;19.514;2023-03-15T17:16:51;3.80;99.90
41427;DHT22;27171;51.812;19.514;2023-03-15T17:19:53;3.70;99.90
41427;DHT22;27171;51.812;19.514;2023-03-15T17:23:12;3.60;99.90
41427;DHT22;27171;51.812;19.514;2023-03-15T17:26:16;3.50;99.90
41427;DHT22;27171;51.812;19.514;2023-03-15T17:29:17;3.40;99.90
41427;DHT22;27171;51.812;19.514;2023-03-15T17:32:18;3.30;99.90
41427;DHT22;27171;51.812;19.514;2023-03-15T17:35:21;3.20;99.90
41427;DHT22;27171;51.812;19.514;2023-03-15T17:38:28;3.10;99.90
41427;DHT22;27171;51.812;19.514;2023-03-15T17:41:33;3.10;99.90
41427;DHT22;27171;51.812;19.514;2023-03-15T17:44:34;3.00;99.90
41427;DHT22;27171;51.812;19.514;2023-03-15T17:47:35;3.00;99.90
41427;DHT22;27171;51.812;19.514;2023-03-15T17:50:37;2.90;99.90
41427;DHT22;27171;51.812;19.514;2023-03-15T17:53:38;2.80;99.90
41427;DHT22;27171;51.812;19.514;2023-03-15T17:56:39;2.80;99.90
41427;DHT22;27171;51.812;19.514;2023-03-15T17:59:40;2.80;99.90
41427;DHT22;27171;51.812;19.514;2023-03-15T18:02:41;2.70;99.90
41427;DHT22;27171;51.812;19.514;2023-03-15T18:05:43;2.70;99.90
41427;DHT22;27171;51.812;19.514;2023-03-15T18:08:44;2.70;99.90
41427;DHT22;27171;51.812;19.514;2023-03-15T18:11:46;2.60;99.90
41427;DHT22;27171;51.812;19.514;2023-03-15T18:14:47;2.60;99.90
41427;DHT22;27171;51.812;19.514;2023-03-15T18:17:48;2.60;99.90
41427;DHT22;27171;51.812;19.514;2023-03-15T18:20:49;2.50;99.90
41427;DHT22;27171;51.812;19.514;2023-03-15T18:23:50;2.60;99.90
41427;DHT22;27171;51.812;19.514;2023-03-15T18:26:51;2.50;99.90
41427;DHT22;27171;51.812;19.514;2023-03-15T18:29:52;2.50;99.90
41427;DHT22;27171;51.812;19.514;2023-03-15T18:32:54;2.40;99.90
41427;DHT22;27171;51.812;19.514;2023-03-15T18:35:55;2.40;99.90
41427;DHT22;27171;51.812;19.514;2023-03-15T18:38:56;2.30;99.90
41427;DHT22;27171;51.812;19.514;2023-03-15T18:41:57;2.30;99.90
41427;DHT22;27171;51.812;19.514;2023-03-15T18:44:58;2.30;99.90
41427;DHT22;27171;51.812;19.514;2023-03-15T18:47:59;2.30;99.90
41427;DHT22;27171;51.812;19.514;2023-03-15T18:51:00;2.30;99.90
41427;DHT22;27171;51.812;19.514;2023-03-15T18:54:01;2.30;99.90
41427;DHT22;27171;51.812;19.514;2023-03-15T18:57:02;2.20;99.90
41427;DHT22;27171;51.812;19.514;2023-03-15T19:00:04;2.20;99.90
41427;DHT22;27171;51.812;19.514;2023-03-15T19:03:05;2.20;99.90
41427;DHT22;27171;51.812;19.514;2023-03-15T19:06:08;2.10;99.90
41427;DHT22;27171;51.812;19.514;2023-03-15T19:09:10;2.10;99.90
41427;DHT22;27171;51.812;19.514;2023-03-15T19:12:11;2.10;99.90
41427;DHT22;27171;51.812;19.514;2023-03-15T19:15:13;2.10;99.90
41427;DHT22;27171;51.812;19.514;2023-03-15T19:18:15;2.00;99.90
41427;DHT22;27171;51.812;19.514;2023-03-15T19:21:17;2.00;99.90
41427;DHT22;27171;51.812;19.514;2023-03-15T19:24:18;2.00;99.90
41427;DHT22;27171;51.812;19.514;2023-03-15T19:27:19;2.00;99.90
41427;DHT22;27171;51.812;19.514;2023-03-15T19:30:20;2.00;99.90
41427;DHT22;27171;51.812;19.514;2023-03-15T19:33:21;1.90;99.90
41427;DHT22;27171;51.812;19.514;2023-03-15T19:36:22;1.90;99.90
41427;DHT22;27171;51.812;19.514;2023-03-15T19:39:23;1.80;99.90
41427;DHT22;27171;51.812;19.514;2023-03-15T19:42:24;1.70;99.90
41427;DHT22;27171;51.812;19.514;2023-03-15T19:45:25;1.70;99.90
41427;DHT22;27171;51.812;19.514;2023-03-15T19:48:26;1.70;99.90
41427;DHT22;27171;51.812;19.514;2023-03-15T19:51:27;1.60;99.90
41427;DHT22;27171;51.812;19.514;2023-03-15T19:54:28;1.60;99.90
41427;DHT22;27171;51.812;19.514;2023-03-15T19:57:29;1.60;99.90
41427;DHT22;27171;51.812;19.514;2023-03-15T20:00:30;1.50;99.90
41427;DHT22;27171;51.812;19.514;2023-03-15T20:03:31;1.50;99.90
41427;DHT22;27171;51.812;19.514;2023-03-15T20:06:32;1.40;99.90
41427;DHT22;27171;51.812;19.514;2023-03-15T20:09:34;1.40;99.90
41427;DHT22;27171;51.812;19.514;2023-03-15T20:12:36;1.30;99.90
41427;DHT22;27171;51.812;19.514;2023-03-15T20:15:37;1.30;99.90
41427;DHT22;27171;51.812;19.514;2023-03-15T20:18:38;1.20;99.90
41427;DHT22;27171;51.812;19.514;2023-03-15T20:21:39;1.20;99.90
41427;DHT22;27171;51.812;19.514;2023-03-15T20:24:40;1.10;99.90
41427;DHT22;27171;51.812;19.514;2023-03-15T20:27:41;1.10;99.90
41427;DHT22;27171;51.812;19.514;2023-03-15T20:30:42;1.10;99.90
41427;DHT22;27171;51.812;19.514;2023-03-15T20:33:47;1.00;99.90
41427;DHT22;27171;51.812;19.514;2023-03-15T20:36:52;0.90;99.90